JTA663 RJFK-RJFF
Flight info
| Callsign | JTA663 |
|---|---|
| Flight time | 0h 38m |
| Altitude | 17000 |
| Route | SASIK Y14 HINAG/N0360F160 Y252 GOKYO Y25 ISKUP |
| Aircraft | B738/M-SABDFGRVYL/LB2 |
Departure
| Time | 2026-04-23 02:10 |
|---|---|
| Airport | Kagoshima Airport (RJFK) |
Arrival
| Time | 2026-04-23 02:48 |
|---|---|
| Airport | Fukuoka Airport (RJFF) |
| Time | Latitude | Longitude | Altitude | Speed | Heading |
|---|---|---|---|---|---|
| 2026-04-23 01:58 | 31.80170 | 130.71660 | 894 ft | 0 kts | 240° |
| 2026-04-23 02:00 | 31.80177 | 130.71674 | 895 ft | 2 kts | 240° |
| 2026-04-23 02:00 | 31.80184 | 130.71689 | 896 ft | 2 kts | 240° |
| 2026-04-23 02:00 | 31.80192 | 130.71704 | 896 ft | 2 kts | 240° |
| 2026-04-23 02:00 | 31.80199 | 130.71719 | 897 ft | 2 kts | 240° |
| 2026-04-23 02:01 | 31.80207 | 130.71735 | 898 ft | 2 kts | 240° |
| 2026-04-23 02:01 | 31.80214 | 130.71750 | 899 ft | 2 kts | 240° |
| 2026-04-23 02:01 | 31.80219 | 130.71759 | 899 ft | 2 kts | 239° |
| 2026-04-23 02:01 | 31.80230 | 130.71771 | 900 ft | 2 kts | 206° |
| 2026-04-23 02:02 | 31.80244 | 130.71776 | 900 ft | 2 kts | 179° |
| 2026-04-23 02:02 | 31.80258 | 130.71773 | 900 ft | 1 kts | 155° |
| 2026-04-23 02:02 | 31.80263 | 130.71770 | 900 ft | 1 kts | 148° |
| 2026-04-23 02:02 | 31.80265 | 130.71768 | 900 ft | 0 kts | 149° |
| 2026-04-23 02:05 | 31.80264 | 130.71768 | 900 ft | 1 kts | 149° |
| 2026-04-23 02:05 | 31.80191 | 130.71817 | 899 ft | 18 kts | 150° |
| 2026-04-23 02:05 | 31.80080 | 130.71890 | 899 ft | 17 kts | 151° |
| 2026-04-23 02:06 | 31.79976 | 130.71960 | 897 ft | 17 kts | 152° |
| 2026-04-23 02:06 | 31.79891 | 130.72018 | 894 ft | 12 kts | 149° |
| 2026-04-23 02:06 | 31.79797 | 130.72082 | 890 ft | 20 kts | 153° |
| 2026-04-23 02:06 | 31.79664 | 130.72172 | 884 ft | 22 kts | 148° |
| 2026-04-23 02:07 | 31.79519 | 130.72270 | 876 ft | 25 kts | 149° |
| 2026-04-23 02:07 | 31.79353 | 130.72380 | 864 ft | 29 kts | 149° |
| 2026-04-23 02:07 | 31.79170 | 130.72505 | 853 ft | 28 kts | 149° |
| 2026-04-23 02:07 | 31.79131 | 130.72630 | 850 ft | 13 kts | 54° |
| 2026-04-23 02:08 | 31.79190 | 130.72699 | 850 ft | 11 kts | 6° |
| 2026-04-23 02:08 | 31.79247 | 130.72678 | 851 ft | 0 kts | 328° |
| 2026-04-23 02:09 | 31.79388 | 130.72583 | 857 ft | 62 kts | 332° |
| 2026-04-23 02:09 | 31.79996 | 130.72171 | 884 ft | 136 kts | 330° |
| 2026-04-23 02:09 | 31.80976 | 130.71506 | 1135 ft | 177 kts | 332° |
| 2026-04-23 02:10 | 31.82057 | 130.70778 | 1939 ft | 184 kts | 333° |
| 2026-04-23 02:10 | 31.83218 | 130.70146 | 2699 ft | 191 kts | 341° |
| 2026-04-23 02:10 | 31.84559 | 130.69759 | 3184 ft | 207 kts | 345° |
| 2026-04-23 02:10 | 31.86023 | 130.69341 | 3660 ft | 225 kts | 342° |
| 2026-04-23 02:11 | 31.87581 | 130.68837 | 4183 ft | 243 kts | 341° |
| 2026-04-23 02:11 | 31.89251 | 130.68274 | 4833 ft | 258 kts | 340° |
| 2026-04-23 02:11 | 31.91038 | 130.67670 | 5527 ft | 272 kts | 339° |
| 2026-04-23 02:11 | 31.92855 | 130.67067 | 6376 ft | 279 kts | 339° |
| 2026-04-23 02:12 | 31.94740 | 130.66446 | 7276 ft | 283 kts | 338° |
| 2026-04-23 02:12 | 31.96596 | 130.65801 | 8196 ft | 283 kts | 335° |
| 2026-04-23 02:12 | 31.98458 | 130.65057 | 9082 ft | 284 kts | 333° |
| 2026-04-23 02:12 | 32.00326 | 130.64269 | 9950 ft | 286 kts | 333° |
| 2026-04-23 02:13 | 32.02219 | 130.63472 | 10592 ft | 297 kts | 333° |
| 2026-04-23 02:13 | 32.04218 | 130.62639 | 11105 ft | 312 kts | 334° |
| 2026-04-23 02:13 | 32.06316 | 130.61772 | 11591 ft | 327 kts | 334° |
| 2026-04-23 02:13 | 32.08505 | 130.60873 | 12052 ft | 341 kts | 334° |
| 2026-04-23 02:14 | 32.10760 | 130.59953 | 12679 ft | 348 kts | 334° |
| 2026-04-23 02:14 | 32.13088 | 130.59004 | 13353 ft | 354 kts | 334° |
| 2026-04-23 02:14 | 32.15419 | 130.58052 | 14026 ft | 358 kts | 333° |
| 2026-04-23 02:14 | 32.17798 | 130.57075 | 14729 ft | 362 kts | 334° |
| 2026-04-23 02:15 | 32.22572 | 130.55131 | 16064 ft | 368 kts | 333° |
| 2026-04-23 02:15 | 32.25030 | 130.54129 | 16665 ft | 371 kts | 333° |
| 2026-04-23 02:15 | 32.27482 | 130.53139 | 16948 ft | 378 kts | 335° |
| 2026-04-23 02:16 | 32.30045 | 130.52313 | 16721 ft | 388 kts | 341° |
| 2026-04-23 02:16 | 32.32729 | 130.51839 | 16688 ft | 385 kts | 347° |
| 2026-04-23 02:16 | 32.35430 | 130.51558 | 16945 ft | 397 kts | 347° |
| 2026-04-23 02:16 | 32.38073 | 130.50862 | 17675 ft | 381 kts | 330° |
| 2026-04-23 02:17 | 32.40272 | 130.49214 | 18279 ft | 366 kts | 310° |
| 2026-04-23 02:17 | 32.41834 | 130.46922 | 18649 ft | 359 kts | 296° |
| 2026-04-23 02:17 | 32.43071 | 130.44321 | 18692 ft | 360 kts | 294° |
| 2026-04-23 02:17 | 32.44260 | 130.41702 | 18686 ft | 357 kts | 293° |
| 2026-04-23 02:18 | 32.45442 | 130.39127 | 18678 ft | 358 kts | 294° |
| 2026-04-23 02:18 | 32.46640 | 130.36546 | 18677 ft | 358 kts | 294° |
| 2026-04-23 02:18 | 32.47854 | 130.33949 | 18686 ft | 358 kts | 294° |
| 2026-04-23 02:18 | 32.49049 | 130.31400 | 18685 ft | 358 kts | 294° |
| 2026-04-23 02:19 | 32.50263 | 130.28813 | 19175 ft | 362 kts | 294° |
| 2026-04-23 02:19 | 32.51469 | 130.26266 | 20100 ft | 354 kts | 294° |
| 2026-04-23 02:19 | 32.52677 | 130.23708 | 20546 ft | 356 kts | 294° |
| 2026-04-23 02:19 | 32.53889 | 130.21124 | 20707 ft | 360 kts | 294° |
| 2026-04-23 02:20 | 32.55103 | 130.18541 | 20699 ft | 357 kts | 294° |
| 2026-04-23 02:20 | 32.56296 | 130.16003 | 20697 ft | 357 kts | 294° |
| 2026-04-23 02:20 | 32.57533 | 130.13440 | 20691 ft | 358 kts | 296° |
| 2026-04-23 02:20 | 32.58945 | 130.11031 | 20697 ft | 363 kts | 304° |
| 2026-04-23 02:21 | 32.60787 | 130.08928 | 20699 ft | 372 kts | 315° |
| 2026-04-23 02:21 | 32.62991 | 130.07256 | 20698 ft | 381 kts | 325° |
| 2026-04-23 02:21 | 32.65411 | 130.05934 | 20698 ft | 387 kts | 331° |
| 2026-04-23 02:21 | 32.68010 | 130.04916 | 20695 ft | 392 kts | 337° |
| 2026-04-23 02:22 | 32.70663 | 130.04158 | 20692 ft | 395 kts | 340° |
| 2026-04-23 02:22 | 32.73341 | 130.03507 | 20692 ft | 395 kts | 341° |
| 2026-04-23 02:22 | 32.76054 | 130.02879 | 20696 ft | 397 kts | 342° |
| 2026-04-23 02:22 | 32.78775 | 130.02248 | 20695 ft | 395 kts | 341° |
| 2026-04-23 02:23 | 32.81480 | 130.01607 | 20697 ft | 396 kts | 341° |
| 2026-04-23 02:23 | 32.84181 | 130.00954 | 20700 ft | 395 kts | 341° |
| 2026-04-23 02:23 | 32.86868 | 130.00291 | 20698 ft | 395 kts | 341° |
| 2026-04-23 02:23 | 32.89555 | 129.99620 | 20699 ft | 395 kts | 341° |
| 2026-04-23 02:24 | 32.92249 | 129.98941 | 20701 ft | 394 kts | 341° |
| 2026-04-23 02:24 | 32.94923 | 129.98263 | 20704 ft | 394 kts | 341° |
| 2026-04-23 02:24 | 32.97586 | 129.97586 | 20705 ft | 394 kts | 341° |
| 2026-04-23 02:24 | 33.00293 | 129.96895 | 20706 ft | 395 kts | 341° |
| 2026-04-23 02:25 | 33.02972 | 129.96213 | 20703 ft | 393 kts | 341° |
| 2026-04-23 02:25 | 33.05640 | 129.95531 | 20708 ft | 396 kts | 341° |
| 2026-04-23 02:25 | 33.08356 | 129.94833 | 20709 ft | 394 kts | 341° |
| 2026-04-23 02:25 | 33.11044 | 129.94145 | 20705 ft | 395 kts | 341° |
| 2026-04-23 02:26 | 33.13726 | 129.93457 | 20716 ft | 394 kts | 341° |
| 2026-04-23 02:26 | 33.16375 | 129.92784 | 20713 ft | 379 kts | 341° |
| 2026-04-23 02:26 | 33.18896 | 129.92148 | 20585 ft | 366 kts | 341° |
| 2026-04-23 02:26 | 33.21373 | 129.91519 | 20281 ft | 360 kts | 341° |
| 2026-04-23 02:27 | 33.23797 | 129.90895 | 19845 ft | 358 kts | 341° |
| 2026-04-23 02:27 | 33.26240 | 129.90262 | 19369 ft | 356 kts | 341° |
| 2026-04-23 02:27 | 33.28652 | 129.89636 | 18903 ft | 355 kts | 341° |
| 2026-04-23 02:27 | 33.31039 | 129.89015 | 18427 ft | 354 kts | 341° |
| 2026-04-23 02:28 | 33.33454 | 129.88388 | 17959 ft | 353 kts | 341° |
| 2026-04-23 02:28 | 33.35858 | 129.87764 | 17486 ft | 351 kts | 342° |
| 2026-04-23 02:28 | 33.38229 | 129.87149 | 17013 ft | 350 kts | 342° |
| 2026-04-23 02:28 | 33.40603 | 129.86536 | 16545 ft | 348 kts | 342° |
| 2026-04-23 02:29 | 33.42949 | 129.85928 | 16076 ft | 347 kts | 343° |
| 2026-04-23 02:29 | 33.45323 | 129.85329 | 15578 ft | 346 kts | 344° |
| 2026-04-23 02:29 | 33.47689 | 129.84888 | 15093 ft | 347 kts | 350° |
| 2026-04-23 02:29 | 33.50115 | 129.84831 | 14623 ft | 349 kts | 359° |
| 2026-04-23 02:30 | 33.52528 | 129.85097 | 14175 ft | 348 kts | 4° |
| 2026-04-23 02:30 | 33.54924 | 129.85496 | 13728 ft | 345 kts | 5° |
| 2026-04-23 02:30 | 33.57284 | 129.85921 | 13283 ft | 342 kts | 5° |
| 2026-04-23 02:30 | 33.59613 | 129.86322 | 12837 ft | 339 kts | 5° |
| 2026-04-23 02:31 | 33.61936 | 129.86842 | 12373 ft | 338 kts | 12° |
| 2026-04-23 02:31 | 33.64094 | 129.87923 | 11936 ft | 339 kts | 31° |
| 2026-04-23 02:31 | 33.65698 | 129.89928 | 11794 ft | 331 kts | 57° |
| 2026-04-23 02:31 | 33.66542 | 129.92448 | 11565 ft | 328 kts | 76° |
| 2026-04-23 02:32 | 33.66895 | 129.95140 | 11329 ft | 322 kts | 81° |
| 2026-04-23 02:32 | 33.67184 | 129.97781 | 11085 ft | 320 kts | 81° |
| 2026-04-23 02:32 | 33.67480 | 130.00436 | 10840 ft | 320 kts | 80° |
| 2026-04-23 02:32 | 33.67780 | 130.03043 | 10601 ft | 318 kts | 80° |
| 2026-04-23 02:33 | 33.68070 | 130.05659 | 10356 ft | 313 kts | 80° |
| 2026-04-23 02:33 | 33.68346 | 130.08223 | 10116 ft | 313 kts | 80° |
| 2026-04-23 02:33 | 33.68624 | 130.10825 | 9867 ft | 309 kts | 80° |
| 2026-04-23 02:33 | 33.68897 | 130.13338 | 9624 ft | 301 kts | 79° |
| 2026-04-23 02:34 | 33.69163 | 130.15810 | 9375 ft | 294 kts | 80° |
| 2026-04-23 02:34 | 33.69313 | 130.18225 | 9135 ft | 289 kts | 89° |
| 2026-04-23 02:34 | 33.68944 | 130.20550 | 8888 ft | 287 kts | 111° |
| 2026-04-23 02:34 | 33.67823 | 130.22530 | 8628 ft | 288 kts | 134° |
| 2026-04-23 02:35 | 33.66246 | 130.24036 | 8395 ft | 288 kts | 143° |
| 2026-04-23 02:35 | 33.64628 | 130.25378 | 8148 ft | 284 kts | 143° |
| 2026-04-23 02:35 | 33.63000 | 130.26753 | 7898 ft | 286 kts | 143° |
| 2026-04-23 02:35 | 33.61394 | 130.28126 | 7650 ft | 282 kts | 143° |
| 2026-04-23 02:36 | 33.59779 | 130.29506 | 7402 ft | 282 kts | 142° |
| 2026-04-23 02:36 | 33.58189 | 130.30855 | 7152 ft | 279 kts | 142° |
| 2026-04-23 02:36 | 33.56622 | 130.32179 | 6905 ft | 278 kts | 142° |
| 2026-04-23 02:36 | 33.55013 | 130.33490 | 6655 ft | 278 kts | 144° |
| 2026-04-23 02:37 | 33.53384 | 130.34749 | 6407 ft | 279 kts | 145° |
| 2026-04-23 02:37 | 33.51747 | 130.35992 | 6161 ft | 278 kts | 145° |
| 2026-04-23 02:37 | 33.50128 | 130.37228 | 5912 ft | 275 kts | 145° |
| 2026-04-23 02:37 | 33.48513 | 130.38469 | 5661 ft | 274 kts | 146° |
| 2026-04-23 02:38 | 33.46928 | 130.39691 | 5414 ft | 271 kts | 145° |
| 2026-04-23 02:38 | 33.45357 | 130.40910 | 5170 ft | 268 kts | 144° |
| 2026-04-23 02:38 | 33.43790 | 130.42133 | 4973 ft | 264 kts | 143° |
| 2026-04-23 02:38 | 33.42254 | 130.43308 | 4985 ft | 263 kts | 144° |
| 2026-04-23 02:39 | 33.40696 | 130.44490 | 4983 ft | 267 kts | 143° |
| 2026-04-23 02:39 | 33.39128 | 130.45679 | 4987 ft | 267 kts | 143° |
| 2026-04-23 02:39 | 33.37553 | 130.46916 | 4982 ft | 267 kts | 143° |
| 2026-04-23 02:39 | 33.35988 | 130.48137 | 4981 ft | 269 kts | 144° |
| 2026-04-23 02:40 | 33.34421 | 130.49341 | 4980 ft | 269 kts | 146° |
| 2026-04-23 02:40 | 33.32858 | 130.50537 | 4980 ft | 264 kts | 145° |
| 2026-04-23 02:40 | 33.31379 | 130.51770 | 4971 ft | 255 kts | 139° |
| 2026-04-23 02:40 | 33.30241 | 130.53284 | 4976 ft | 240 kts | 115° |
| 2026-04-23 02:41 | 33.29915 | 130.55153 | 4969 ft | 227 kts | 81° |
| 2026-04-23 02:41 | 33.30386 | 130.56957 | 4980 ft | 226 kts | 59° |
| 2026-04-23 02:41 | 33.31189 | 130.58498 | 4990 ft | 210 kts | 56° |
| 2026-04-23 02:41 | 33.31914 | 130.59915 | 4975 ft | 194 kts | 52° |
| 2026-04-23 02:42 | 33.32912 | 130.60938 | 4923 ft | 189 kts | 19° |
| 2026-04-23 02:42 | 33.34204 | 130.61116 | 4844 ft | 190 kts | 353° |
| 2026-04-23 02:42 | 33.35497 | 130.60771 | 4712 ft | 188 kts | 342° |
| 2026-04-23 02:42 | 33.36674 | 130.60104 | 4544 ft | 189 kts | 330° |
| 2026-04-23 02:43 | 33.37784 | 130.59229 | 4347 ft | 190 kts | 329° |
| 2026-04-23 02:43 | 33.38896 | 130.58420 | 4245 ft | 185 kts | 333° |
| 2026-04-23 02:43 | 33.40043 | 130.57654 | 4079 ft | 191 kts | 333° |
| 2026-04-23 02:43 | 33.41198 | 130.56859 | 3767 ft | 192 kts | 333° |
| 2026-04-23 02:44 | 33.42344 | 130.56074 | 3506 ft | 189 kts | 335° |
| 2026-04-23 02:44 | 33.43505 | 130.55296 | 3239 ft | 190 kts | 335° |
| 2026-04-23 02:44 | 33.44641 | 130.54532 | 2978 ft | 188 kts | 335° |
| 2026-04-23 02:44 | 33.45785 | 130.53751 | 2714 ft | 186 kts | 335° |
| 2026-04-23 02:45 | 33.46910 | 130.52988 | 2472 ft | 184 kts | 335° |
| 2026-04-23 02:45 | 33.48009 | 130.52243 | 2203 ft | 179 kts | 335° |
| 2026-04-23 02:45 | 33.49072 | 130.51524 | 1964 ft | 173 kts | 335° |
| 2026-04-23 02:45 | 33.50098 | 130.50833 | 1732 ft | 166 kts | 336° |
| 2026-04-23 02:46 | 33.51094 | 130.50153 | 1498 ft | 161 kts | 336° |
| 2026-04-23 02:46 | 33.52044 | 130.49519 | 1293 ft | 154 kts | 336° |
| 2026-04-23 02:46 | 33.52958 | 130.48898 | 1091 ft | 148 kts | 334° |
| 2026-04-23 02:46 | 33.53838 | 130.48285 | 896 ft | 144 kts | 335° |
| 2026-04-23 02:47 | 33.54729 | 130.47710 | 704 ft | 143 kts | 334° |
| 2026-04-23 02:47 | 33.55555 | 130.47113 | 551 ft | 134 kts | 333° |
| 2026-04-23 02:47 | 33.56358 | 130.46582 | 367 ft | 131 kts | 334° |
| 2026-04-23 02:47 | 33.57166 | 130.46042 | 193 ft | 134 kts | 333° |
| 2026-04-23 02:48 | 33.57969 | 130.45488 | 59 ft | 129 kts | 331° |
| 2026-04-23 02:48 | 33.58687 | 130.45003 | 41 ft | 106 kts | 331° |
| 2026-04-23 02:48 | 33.59238 | 130.44624 | 40 ft | 70 kts | 328° |
| 2026-04-23 02:48 | 33.59466 | 130.44495 | 40 ft | 28 kts | 350° |
| 2026-04-23 02:49 | 33.59635 | 130.44490 | 40 ft | 16 kts | 21° |
| 2026-04-23 02:49 | 33.59702 | 130.44577 | 40 ft | 12 kts | 60° |
| 2026-04-23 02:49 | 33.59676 | 130.44653 | 40 ft | 10 kts | 144° |
| 2026-04-23 02:49 | 33.59619 | 130.44698 | 40 ft | 7 kts | 116° |
| 2026-04-23 02:50 | 33.59633 | 130.44760 | 40 ft | 7 kts | 60° |
| 2026-04-23 02:50 | 33.59649 | 130.44794 | 40 ft | 2 kts | 60° |
| 2026-04-23 02:50 | 33.59651 | 130.44800 | 40 ft | 0 kts | 60° |